Time;durP1;ratioP1;P1;durP2;ratioP2;P2;SDS_P1;SDS_P2;PMS_P1;PMS_P2;Temp;Humidity;BMP_temperature;BMP_pressure;BME280_temperature;BME280_humidity;BME280_pressure;Samples;Min_cycle;Max_cycle;Signal;HPM_P1;HPM_P2
2022/06/30 00:02:22;;;;;;;21.58;14.88;;;;;;;20.57;64.91;100973.91;5010777;28;20426;-54
2022/06/30 00:04:48;;;;;;;22.48;16.23;;;;;;;20.53;65.25;100973.00;5014018;28;20384;-51
2022/06/30 00:07:13;;;;;;;23.08;15.45;;;;;;;20.50;65.41;100968.13;5013585;28;20026;-53
2022/06/30 00:09:40;;;;;;;21.40;15.52;;;;;;;20.35;65.75;100967.03;5014170;28;20025;-54
2022/06/30 00:12:06;;;;;;;22.27;16.65;;;;;;;20.37;65.80;100959.03;5014034;28;20034;-55
2022/06/30 00:14:32;;;;;;;23.75;16.33;;;;;;;20.32;66.04;100954.53;5014109;28;20431;-54
2022/06/30 00:16:57;;;;;;;21.15;15.23;;;;;;;20.32;65.43;100962.97;5013961;28;20032;-53
2022/06/30 00:19:22;;;;;;;22.67;16.15;;;;;;;20.25;65.89;100943.97;5012755;28;20405;-53
2022/06/30 00:21:48;;;;;;;22.65;16.05;;;;;;;20.21;66.16;100954.31;5013949;28;20110;-53
2022/06/30 00:24:13;;;;;;;22.95;15.82;;;;;;;20.20;66.13;100949.09;5013609;28;20033;-53
2022/06/30 00:26:38;;;;;;;23.02;16.80;;;;;;;20.18;66.28;100952.25;5014423;28;20061;-52
2022/06/30 00:29:04;;;;;;;22.08;16.33;;;;;;;20.09;67.00;100944.06;5013336;28;20112;-53
2022/06/30 00:31:29;;;;;;;21.88;16.33;;;;;;;20.02;67.02;100948.69;5013694;28;20113;-52
2022/06/30 00:33:54;;;;;;;23.10;16.73;;;;;;;19.99;67.19;100944.63;5013968;28;20028;-54
2022/06/30 00:36:20;;;;;;;22.35;16.52;;;;;;;19.94;67.36;100939.31;5013749;28;20064;-54
2022/06/30 00:38:45;;;;;;;22.60;16.50;;;;;;;19.94;67.32;100939.31;5013851;28;20053;-53
2022/06/30 00:41:10;;;;;;;23.25;16.52;;;;;;;19.86;67.40;100937.53;5013283;28;20597;-53
2022/06/30 00:43:43;;;;;;;23.30;16.63;;;;;;;19.83;67.20;100927.81;5013522;28;20063;-50
2022/06/30 00:46:09;;;;;;;22.38;16.65;;;;;;;19.75;67.76;100932.47;5013692;28;20033;-53
2022/06/30 00:48:34;;;;;;;23.00;16.52;;;;;;;19.78;67.63;100939.34;5013243;28;20029;-50
2022/06/30 00:50:59;;;;;;;23.83;17.30;;;;;;;19.75;67.90;100934.47;5013638;28;20386;-52
2022/06/30 00:53:26;;;;;;;23.20;17.17;;;;;;;19.71;68.10;100930.75;5012961;28;20021;-51
2022/06/30 00:55:53;;;;;;;21.98;16.65;;;;;;;19.67;68.29;100935.50;5013367;28;20446;-52
2022/06/30 00:58:20;;;;;;;23.95;17.42;;;;;;;19.62;68.15;100934.59;5012634;28;20122;-53
2022/06/30 01:00:47;;;;;;;24.95;16.55;;;;;;;19.53;68.52;100936.78;5013421;28;20147;-52
2022/06/30 01:03:13;;;;;;;24.27;17.90;;;;;;;19.50;68.71;100931.91;5012959;28;20087;-52
2022/06/30 01:05:38;;;;;;;24.13;17.83;;;;;;;19.48;68.82;100928.66;5012771;28;20062;-53
2022/06/30 01:08:04;;;;;;;22.65;17.92;;;;;;;19.46;69.17;100931.00;5013182;28;20075;-53
2022/06/30 01:13:14;;;;;;;;;;;;;;;19.53;66.90;100941.59;5011862;28;20044;-54
2022/06/30 01:15:39;;;;;;;23.67;17.77;;;;;;;19.37;69.52;100948.03;5012857;28;19909;-53
2022/06/30 01:18:05;;;;;;;23.23;17.17;;;;;;;19.38;70.00;100932.81;5011020;28;20048;-51
2022/06/30 01:20:32;;;;;;;23.73;17.60;;;;;;;19.32;70.25;100935.09;5012999;28;20062;-53
2022/06/30 01:22:58;;;;;;;23.95;17.13;;;;;;;19.35;70.08;100946.78;5013239;28;20030;-53
2022/06/30 01:25:25;;;;;;;23.08;17.55;;;;;;;19.31;70.46;100952.28;5011495;28;20022;-54
2022/06/30 01:27:51;;;;;;;23.73;18.20;;;;;;;19.33;70.38;100941.53;5012326;28;20037;-54
2022/06/30 01:30:16;;;;;;;24.10;18.48;;;;;;;19.20;71.03;100946.44;5012391;28;20041;-51
2022/06/30 01:32:41;;;;;;;24.02;17.35;;;;;;;19.17;71.38;100944.34;5012783;28;20026;-52
2022/06/30 01:35:08;;;;;;;23.27;17.23;;;;;;;19.14;71.08;100948.69;5013067;28;20118;-54
2022/06/30 01:37:54;;;;;;;24.10;18.77;;;;;;;19.16;70.21;100949.16;5012943;28;20093;-53
2022/06/30 01:40:21;;;;;;;25.55;17.88;;;;;;;19.11;71.32;100957.81;5012577;28;20041;-53
2022/06/30 01:42:47;;;;;;;23.80;18.05;;;;;;;19.10;71.23;100952.59;5012492;28;20030;-53
2022/06/30 01:45:13;;;;;;;24.15;18.80;;;;;;;19.06;71.35;100960.91;5012215;28;20084;-51
2022/06/30 01:47:38;;;;;;;25.00;18.17;;;;;;;18.97;71.67;100949.88;5012420;28;20069;-50
2022/06/30 01:50:15;;;;;;;25.25;18.60;;;;;;;18.95;71.65;100949.41;5011627;28;20026;-50
2022/06/30 01:52:41;;;;;;;24.88;19.00;;;;;;;18.92;71.82;100952.91;5012341;28;20038;-54
2022/06/30 01:55:07;;;;;;;25.75;18.40;;;;;;;18.85;72.12;100955.50;5012682;28;20033;-51
2022/06/30 01:57:33;;;;;;;25.17;18.58;;;;;;;18.88;72.36;100959.59;5011641;28;20061;-50
2022/06/30 01:59:59;;;;;;;24.58;18.50;;;;;;;18.83;72.21;100952.28;5012513;28;20056;-54
2022/06/30 02:02:24;;;;;;;25.95;18.42;;;;;;;18.82;72.28;100951.44;5011987;28;20113;-52
2022/06/30 02:04:51;;;;;;;24.70;18.92;;;;;;;18.77;72.56;100953.69;5011931;28;20033;-52
2022/06/30 02:07:21;;;;;;;26.17;19.45;;;;;;;18.69;72.65;100945.13;5011681;28;20084;-49
2022/06/30 02:09:50;;;;;;;25.30;20.17;;;;;;;18.67;73.01;100953.06;5011972;28;20052;-52
2022/06/30 02:15:00;;;;;;;26.00;19.48;;;;;;;18.63;73.07;100960.56;5011768;28;20703;-53
2022/06/30 02:17:26;;;;;;;24.05;19.85;;;;;;;18.63;72.97;100956.94;5011839;28;20034;-53
2022/06/30 02:19:51;;;;;;;25.63;20.77;;;;;;;18.58;73.16;100952.41;5011349;28;20103;-50
2022/06/30 02:22:16;;;;;;;25.95;20.15;;;;;;;18.53;73.53;100953.50;5011599;28;20440;-52
2022/06/30 02:24:42;;;;;;;25.30;20.45;;;;;;;18.50;73.60;100957.03;5010838;28;20446;-51
2022/06/30 02:27:07;;;;;;;27.38;20.08;;;;;;;18.49;73.73;100958.19;5011700;28;20033;-53
2022/06/30 02:29:33;;;;;;;24.58;19.27;;;;;;;18.46;73.84;100960.91;5011892;28;20022;-50
2022/06/30 02:31:58;;;;;;;26.35;19.90;;;;;;;18.43;74.01;100958.81;5011178;28;20098;-51
2022/06/30 02:34:23;;;;;;;25.70;19.83;;;;;;;18.35;74.46;100953.00;5011663;28;20018;-54
2022/06/30 02:36:49;;;;;;;25.75;20.23;;;;;;;18.35;74.91;100960.56;5012065;28;20022;-53
2022/06/30 02:39:14;;;;;;;26.90;20.40;;;;;;;18.23;75.37;100965.06;5010922;28;20029;-53
2022/06/30 02:41:39;;;;;;;26.48;21.55;;;;;;;18.20;75.03;100956.56;5011074;28;20026;-53
2022/06/30 02:44:05;;;;;;;25.35;20.20;;;;;;;18.17;75.46;100954.47;5011556;28;20036;-53
2022/06/30 02:46:30;;;;;;;26.50;20.75;;;;;;;18.14;75.43;100963.59;5011386;28;20034;-50
2022/06/30 02:48:55;;;;;;;26.83;22.38;;;;;;;18.09;76.27;100961.84;5011208;28;20084;-52
2022/06/30 02:51:21;;;;;;;27.88;21.25;;;;;;;18.04;76.32;100953.72;5010594;28;20187;-50
2022/06/30 02:53:46;;;;;;;26.17;21.73;;;;;;;18.04;76.57;100948.13;5011249;28;20030;-53
2022/06/30 02:56:12;;;;;;;26.50;21.83;;;;;;;18.03;76.55;100952.09;5011146;28;20026;-49
2022/06/30 02:58:38;;;;;;;26.80;22.23;;;;;;;17.98;77.00;100947.56;5010565;28;20378;-52
2022/06/30 03:01:04;;;;;;;27.65;23.23;;;;;;;17.90;77.35;100960.47;5010878;28;20102;-52
2022/06/30 03:03:29;;;;;;;27.35;21.33;;;;;;;17.85;78.02;100957.09;5010565;28;20444;-53
2022/06/30 03:05:54;;;;;;;26.63;21.85;;;;;;;17.83;78.13;100957.47;5010303;28;20025;-53
2022/06/30 03:08:19;;;;;;;27.23;22.52;;;;;;;17.76;78.27;100951.63;5011204;28;20022;-53
2022/06/30 03:10:45;;;;;;;26.23;21.52;;;;;;;17.73;78.80;100952.34;5010078;28;20420;-53
2022/06/30 03:13:10;;;;;;;28.27;22.48;;;;;;;17.71;78.76;100949.88;5009860;28;20129;-52
2022/06/30 03:15:36;;;;;;;28.73;23.30;;;;;;;17.65;78.99;100956.91;5010024;28;20030;-54
2022/06/30 03:18:01;;;;;;;28.45;22.85;;;;;;;17.67;78.92;100960.19;5009839;28;20339;-53
2022/06/30 03:20:26;;;;;;;28.67;23.77;;;;;;;17.62;79.25;100961.22;5010087;28;20054;-53
2022/06/30 03:22:52;;;;;;;28.83;23.13;;;;;;;17.68;78.79;100959.00;5010193;28;20041;-53
2022/06/30 03:25:17;;;;;;;27.33;23.30;;;;;;;17.62;79.62;100950.03;5009202;28;20124;-53
2022/06/30 03:27:42;;;;;;;28.15;23.58;;;;;;;17.61;79.24;100956.81;5010496;28;20022;-52
2022/06/30 03:30:08;;;;;;;30.25;25.17;;;;;;;17.54;79.87;100948.19;5010411;28;20030;-49
2022/06/30 03:32:33;;;;;;;29.08;23.75;;;;;;;17.55;79.79;100944.22;5010186;28;20441;-53
2022/06/30 03:34:58;;;;;;;29.13;23.90;;;;;;;17.55;79.83;100946.19;5010336;28;20061;-54
2022/06/30 03:37:24;;;;;;;28.95;24.48;;;;;;;17.48;80.52;100938.38;5011581;28;20073;-51
2022/06/30 03:39:49;;;;;;;30.35;24.55;;;;;;;17.41;80.87;100941.81;5014721;28;20493;-53
2022/06/30 03:42:15;;;;;;;27.42;24.02;;;;;;;17.42;80.56;100935.03;5013029;28;20046;-53
2022/06/30 03:44:40;;;;;;;28.92;24.02;;;;;;;17.48;80.40;100938.38;5014551;28;20026;-53
2022/06/30 03:47:05;;;;;;;29.83;24.98;;;;;;;17.50;80.10;100924.88;5014430;28;20030;-53
2022/06/30 03:49:31;;;;;;;30.00;24.58;;;;;;;17.56;80.15;100929.09;5013124;28;20040;-49
2022/06/30 03:51:56;;;;;;;29.48;24.60;;;;;;;17.80;79.81;100929.38;5014038;28;20034;-53
2022/06/30 03:54:22;;;;;;;28.63;23.80;;;;;;;18.13;78.17;100936.75;5014176;28;20381;-50
2022/06/30 03:56:48;;;;;;;28.35;23.98;;;;;;;18.51;77.34;100935.41;5013617;28;20033;-53
2022/06/30 03:59:14;;;;;;;30.45;24.75;;;;;;;18.73;75.71;100939.59;5014361;28;20026;-51
2022/06/30 04:01:40;;;;;;;29.40;24.63;;;;;;;18.70;75.48;100932.72;5014014;28;20033;-54
2022/06/30 04:04:05;;;;;;;30.15;24.88;;;;;;;18.60;75.48;100926.84;5013935;28;20109;-54
2022/06/30 04:06:30;;;;;;;29.77;25.23;;;;;;;18.48;75.91;100925.75;5013627;28;20026;-50
2022/06/30 04:08:55;;;;;;;29.75;26.00;;;;;;;18.30;77.00;100927.25;5013573;28;20057;-53
2022/06/30 04:11:21;;;;;;;30.23;24.50;;;;;;;18.29;76.79;100931.22;5013731;28;20026;-50
2022/06/30 04:13:46;;;;;;;29.65;25.25;;;;;;;18.19;77.25;100913.75;5013855;28;20048;-50
2022/06/30 04:16:11;;;;;;;29.65;25.98;;;;;;;18.14;77.76;100907.59;5012545;28;20508;-53
2022/06/30 04:18:37;;;;;;;31.90;26.13;;;;;;;18.08;77.91;100916.25;5013406;28;20032;-54
2022/06/30 04:21:02;;;;;;;30.45;27.10;;;;;;;18.02;78.57;100928.84;5013235;28;20038;-53
2022/06/30 04:23:27;;;;;;;31.70;27.17;;;;;;;17.99;78.81;100929.59;5013772;28;20171;-52
2022/06/30 04:25:52;;;;;;;29.98;26.75;;;;;;;17.92;79.20;100930.16;5013649;28;20038;-53
2022/06/30 04:28:18;;;;;;;31.67;27.45;;;;;;;17.93;79.34;100931.78;5013428;28;20066;-53
2022/06/30 04:33:27;;;;;;;;;;;;;;;18.12;76.62;100930.34;5013372;28;20036;-52
2022/06/30 04:35:52;;;;;;;32.67;26.03;;;;;;;18.08;78.41;100924.66;5013377;28;19909;-53
2022/06/30 04:38:18;;;;;;;32.15;27.38;;;;;;;18.09;78.99;100923.47;5013774;28;20080;-50
2022/06/30 04:43:27;;;;;;;;;;;;;;;18.22;77.17;100937.41;5013938;28;20505;-52
2022/06/30 04:45:52;;;;;;;30.52;27.00;;;;;;;18.20;78.63;100934.16;5013440;28;19913;-53
2022/06/30 04:48:17;;;;;;;32.42;26.35;;;;;;;18.23;78.73;100939.84;5012498;28;20497;-53
2022/06/30 04:50:43;;;;;;;31.90;26.30;;;;;;;18.30;78.28;100950.44;5012924;28;20422;-53
2022/06/30 04:53:08;;;;;;;30.23;26.23;;;;;;;18.35;78.30;100938.19;5012964;28;20045;-54
2022/06/30 04:55:34;;;;;;;29.52;26.33;;;;;;;18.36;77.94;100946.25;5012990;28;20030;-54
2022/06/30 04:57:59;;;;;;;33.40;26.65;;;;;;;18.38;77.98;100943.06;5012750;28;20034;-56
2022/06/30 05:00:25;;;;;;;28.50;24.85;;;;;;;18.44;77.54;100980.84;5013004;28;20346;-54
2022/06/30 05:02:50;;;;;;;30.63;24.75;;;;;;;18.50;77.78;100939.38;5012852;28;20030;-55
2022/06/30 05:05:15;;;;;;;27.77;24.75;;;;;;;18.48;77.38;100948.16;5012406;28;20087;-56
2022/06/30 05:07:40;;;;;;;27.35;24.13;;;;;;;18.52;77.23;100979.06;5012519;28;20374;-54
2022/06/30 05:10:06;;;;;;;30.13;24.55;;;;;;;18.51;77.55;100958.66;5013450;28;20030;-58
2022/06/30 05:12:31;;;;;;;30.73;26.13;;;;;;;18.49;77.87;100957.38;5012925;28;20065;-55
2022/06/30 05:14:58;;;;;;;31.13;26.20;;;;;;;18.49;77.99;100975.00;5013295;28;20037;-54
2022/06/30 05:17:24;;;;;;;28.77;25.67;;;;;;;18.48;78.48;100956.56;5013056;28;20068;-54
2022/06/30 05:19:49;;;;;;;29.25;25.55;;;;;;;18.58;78.27;100971.22;5012827;28;20128;-55
2022/06/30 05:22:14;;;;;;;31.98;26.52;;;;;;;18.60;78.42;100969.69;5012939;28;20113;-54
2022/06/30 05:27:23;;;;;;;29.60;26.38;;;;;;;18.70;78.49;100968.38;5012644;28;20124;-54
2022/06/30 05:29:49;;;;;;;30.92;27.63;;;;;;;18.71;78.79;100969.97;5012982;28;20021;-55
2022/06/30 05:32:14;;;;;;;32.00;28.25;;;;;;;18.79;78.30;100959.78;5012889;28;20053;-55
2022/06/30 05:34:39;;;;;;;31.90;26.58;;;;;;;18.88;78.29;100962.41;5012935;28;20037;-54
2022/06/30 05:37:05;;;;;;;30.40;27.10;;;;;;;18.98;77.96;100973.13;5012926;28;20025;-55
2022/06/30 05:39:33;;;;;;;30.70;27.35;;;;;;;19.07;77.81;100973.75;5012438;28;20037;-55
2022/06/30 05:42:00;;;;;;;31.60;28.20;;;;;;;19.09;77.85;100962.19;5012852;28;20034;-55
2022/06/30 05:44:26;;;;;;;32.05;28.75;;;;;;;19.15;77.56;100964.34;5012993;28;20175;-54
2022/06/30 05:46:51;;;;;;;31.45;28.13;;;;;;;19.15;77.73;100966.31;5012365;28;20032;-55
2022/06/30 05:49:17;;;;;;;33.03;29.52;;;;;;;19.14;77.95;100959.91;5012460;28;20104;-54
2022/06/30 05:51:42;;;;;;;33.75;30.20;;;;;;;19.16;78.15;100960.38;5012628;28;20037;-53
2022/06/30 05:54:07;;;;;;;32.70;29.13;;;;;;;19.26;77.89;100963.81;5011862;28;20022;-54
2022/06/30 05:56:33;;;;;;;32.70;29.23;;;;;;;19.29;77.86;100963.06;5012417;28;20393;-55
2022/06/30 05:58:58;;;;;;;33.55;30.05;;;;;;;19.27;78.04;100954.22;5011511;28;20444;-56
2022/06/30 06:01:23;;;;;;;33.58;29.75;;;;;;;19.33;78.22;100961.16;5011300;28;20040;-57
2022/06/30 06:03:49;;;;;;;32.13;28.73;;;;;;;19.39;77.75;100968.13;5011707;28;20029;-56
2022/06/30 06:06:14;;;;;;;33.20;29.65;;;;;;;19.47;77.42;100969.13;5011916;28;20025;-56
2022/06/30 06:08:40;;;;;;;35.58;31.73;;;;;;;19.45;77.56;100971.47;5011275;28;20026;-57
2022/06/30 06:11:05;;;;;;;35.05;29.90;;;;;;;19.47;77.39;100978.31;5012378;28;20046;-57
2022/06/30 06:13:31;;;;;;;34.95;29.98;;;;;;;19.47;77.32;100980.34;5012044;28;20454;-57
2022/06/30 06:15:56;;;;;;;34.15;30.27;;;;;;;19.44;77.59;100979.06;5011927;28;20118;-57
2022/06/30 06:18:21;;;;;;;33.97;30.35;;;;;;;19.46;77.35;100984.31;5012139;28;20033;-56
2022/06/30 06:20:47;;;;;;;34.15;30.45;;;;;;;19.40;77.50;100978.16;5012142;28;20112;-56
2022/06/30 06:23:12;;;;;;;33.28;29.63;;;;;;;19.42;77.23;100969.38;5012004;28;20109;-57
2022/06/30 06:25:37;;;;;;;37.72;30.52;;;;;;;19.42;78.13;100975.81;5010345;28;20038;-57
2022/06/30 06:30:46;;;;;;;34.63;29.85;;;;;;;19.56;76.49;100980.13;5010943;28;20404;-56
2022/06/30 06:33:12;;;;;;;32.00;27.67;;;;;;;19.61;76.13;100993.88;5010075;28;20525;-56
2022/06/30 06:35:37;;;;;;;31.55;27.45;;;;;;;19.69;76.15;100989.25;5010808;28;20026;-56
2022/06/30 06:38:03;;;;;;;32.78;28.25;;;;;;;19.73;76.32;100988.16;5010467;28;20018;-56
2022/06/30 06:40:29;;;;;;;32.28;28.08;;;;;;;19.79;76.07;100981.09;5009415;28;20113;-58
2022/06/30 06:42:54;;;;;;;31.33;27.40;;;;;;;19.88;75.38;100986.53;5010627;28;20092;-56
2022/06/30 06:45:20;;;;;;;32.42;26.33;;;;;;;19.98;75.12;100990.75;5011104;28;20358;-56
2022/06/30 06:47:46;;;;;;;30.55;26.50;;;;;;;20.01;75.24;100995.63;5011329;28;20029;-58
2022/06/30 06:50:11;;;;;;;30.30;25.75;;;;;;;20.09;74.71;100990.97;5011523;28;20076;-57
2022/06/30 06:52:37;;;;;;;29.98;25.42;;;;;;;20.15;74.12;100994.31;5011100;28;20029;-56
2022/06/30 06:55:03;;;;;;;30.17;25.05;;;;;;;20.16;74.08;100993.13;5011462;28;20026;-57
2022/06/30 06:57:34;;;;;;;29.60;24.65;;;;;;;20.22;73.66;100995.28;5011075;28;20030;-57
2022/06/30 06:59:59;;;;;;;28.83;22.98;;;;;;;20.34;73.01;100990.69;5011491;28;20129;-56
2022/06/30 07:02:24;;;;;;;29.35;22.23;;;;;;;20.41;72.31;101002.88;5011410;28;20529;-57
2022/06/30 07:04:50;;;;;;;28.65;22.55;;;;;;;20.49;71.74;101005.84;5011217;28;20033;-57
2022/06/30 07:07:15;;;;;;;27.25;20.13;;;;;;;20.51;71.46;101004.28;5011522;28;20026;-57
2022/06/30 07:09:40;;;;;;;27.13;20.42;;;;;;;20.60;71.34;101012.47;5011137;28;20382;-56
2022/06/30 07:12:06;;;;;;;26.63;19.58;;;;;;;20.61;70.29;101016.13;5010221;28;20072;-56
2022/06/30 07:14:31;;;;;;;27.45;20.80;;;;;;;20.54;70.28;101019.59;5011182;28;20026;-57
2022/06/30 07:16:56;;;;;;;27.92;20.35;;;;;;;20.50;70.52;101030.75;5011274;28;20036;-57
2022/06/30 07:19:22;;;;;;;29.15;20.83;;;;;;;20.37;71.24;101027.28;5010933;28;20046;-56
2022/06/30 07:21:47;;;;;;;28.33;19.58;;;;;;;20.41;71.26;101036.59;5011010;28;20026;-57
2022/06/30 07:24:12;;;;;;;26.10;19.25;;;;;;;20.41;71.09;101032.97;5010952;28;20058;-55
2022/06/30 07:26:38;;;;;;;25.73;19.13;;;;;;;20.41;71.18;101041.41;5011002;28;20030;-56
2022/06/30 07:29:03;;;;;;;27.73;20.00;;;;;;;20.48;71.22;101049.97;5011236;28;20412;-59
2022/06/30 07:31:28;;;;;;;27.48;19.40;;;;;;;20.52;70.98;101050.88;5010826;28;20033;-56
2022/06/30 07:33:54;;;;;;;25.98;18.27;;;;;;;20.55;71.35;101046.50;5011246;28;20485;-57
2022/06/30 07:36:20;;;;;;;25.08;17.58;;;;;;;20.53;71.33;101057.31;5011016;28;20037;-57
2022/06/30 07:38:47;;;;;;;25.92;18.10;;;;;;;20.63;70.33;101067.97;5011118;28;20037;-57
2022/06/30 07:41:12;;;;;;;25.15;16.77;;;;;;;20.76;70.95;101065.03;5010844;28;20260;-55
2022/06/30 07:43:38;;;;;;;25.27;16.83;;;;;;;20.87;70.39;101066.06;5010976;28;20395;-56
2022/06/30 07:46:04;;;;;;;27.67;15.63;;;;;;;20.98;70.05;101067.06;5011068;28;20049;-56
2022/06/30 07:48:30;;;;;;;22.02;15.05;;;;;;;21.08;69.82;101070.44;5010889;28;20082;-57
2022/06/30 07:50:55;;;;;;;23.92;15.07;;;;;;;21.12;69.08;101066.50;5010713;28;20389;-56
2022/06/30 07:53:21;;;;;;;25.00;15.48;;;;;;;21.21;69.12;101063.47;5010973;28;20026;-57
2022/06/30 07:55:46;;;;;;;23.92;14.82;;;;;;;21.30;68.21;101077.31;5010300;28;20473;-55
2022/06/30 07:58:11;;;;;;;23.42;15.02;;;;;;;21.34;68.54;101059.28;5008245;28;20065;-56
2022/06/30 08:00:37;;;;;;;21.65;14.77;;;;;;;21.43;67.96;101061.03;5024125;28;20042;-54
2022/06/30 08:03:02;;;;;;;22.70;14.40;;;;;;;21.41;67.37;101069.84;5008669;28;20036;-56
2022/06/30 08:05:27;;;;;;;23.35;15.20;;;;;;;21.48;67.58;101071.97;5008800;28;20041;-55
2022/06/30 08:07:53;;;;;;;22.33;14.32;;;;;;;21.61;67.47;101064.16;5008782;28;20123;-57
2022/06/30 08:10:18;;;;;;;22.55;14.63;;;;;;;21.50;66.21;101067.59;5008776;28;20030;-57
2022/06/30 08:12:43;;;;;;;20.98;13.50;;;;;;;21.47;65.94;101062.72;5008719;28;20145;-54
2022/06/30 08:15:09;;;;;;;22.48;13.35;;;;;;;21.50;64.61;101066.78;5008943;28;20049;-56
2022/06/30 08:17:35;;;;;;;21.92;12.52;;;;;;;21.59;65.34;101058.94;5008777;28;20393;-56
2022/06/30 08:20:00;;;;;;;21.65;13.13;;;;;;;21.69;64.67;101063.09;5007125;28;20092;-55
2022/06/30 08:22:26;;;;;;;23.77;12.68;;;;;;;21.72;63.54;101058.72;5008685;28;20052;-56
2022/06/30 08:24:52;;;;;;;24.30;13.23;;;;;;;21.79;63.49;101059.63;5012110;28;20060;-56
2022/06/30 08:27:17;;;;;;;22.05;12.27;;;;;;;21.94;63.94;101054.22;5012155;28;20037;-56
2022/06/30 08:29:43;;;;;;;21.45;13.20;;;;;;;22.02;63.15;101052.31;5027148;28;20022;-56
2022/06/30 08:32:08;;;;;;;22.67;12.30;;;;;;;22.06;63.24;101051.19;5009787;28;20124;-56
2022/06/30 08:34:33;;;;;;;20.63;12.27;;;;;;;22.10;61.86;101045.63;5011889;28;20156;-57
2022/06/30 08:36:59;;;;;;;20.90;11.90;;;;;;;22.15;62.39;101052.94;5012012;28;20033;-56
2022/06/30 08:42:11;;;;;;;19.27;11.40;;;;;;;22.31;60.63;101047.06;5012120;28;20092;-56
2022/06/30 08:44:37;;;;;;;20.15;11.35;;;;;;;22.39;60.38;101043.16;5009853;28;20568;-56
2022/06/30 08:47:04;;;;;;;21.33;11.77;;;;;;;22.40;60.75;101045.66;5011472;28;20061;-56
2022/06/30 08:49:31;;;;;;;18.48;11.23;;;;;;;22.31;60.36;101050.72;5011712;28;20422;-55
2022/06/30 08:51:58;;;;;;;20.67;11.00;;;;;;;22.38;60.54;101047.19;5011747;28;20101;-56
2022/06/30 08:54:26;;;;;;;18.92;10.65;;;;;;;22.43;60.20;101060.97;5011380;28;20083;-54
2022/06/30 08:56:53;;;;;;;17.77;10.10;;;;;;;22.58;57.86;101057.13;5011244;28;20051;-56
2022/06/30 08:59:20;;;;;;;19.02;10.85;;;;;;;22.54;58.45;101056.28;5011243;28;20129;-56
2022/06/30 09:01:45;;;;;;;20.10;11.07;;;;;;;22.54;58.34;101055.47;5011360;28;20022;-55
2022/06/30 09:04:11;;;;;;;20.80;11.70;;;;;;;22.65;58.29;101064.84;5011394;28;20053;-56
2022/06/30 09:06:36;;;;;;;21.20;11.27;;;;;;;22.71;57.54;101065.34;5011118;28;20506;-55
2022/06/30 09:09:04;;;;;;;20.95;11.13;;;;;;;22.78;58.42;101050.50;5011096;28;20034;-56
2022/06/30 09:11:53;;;;;;;19.83;10.90;;;;;;;22.77;57.57;101063.78;5011094;28;20034;-56
2022/06/30 09:14:32;;;;;;;20.80;11.35;;;;;;;22.81;56.78;101063.84;5026416;28;20373;-57
2022/06/30 09:16:59;;;;;;;19.00;10.02;;;;;;;22.93;57.12;101057.13;5011054;28;20038;-56
2022/06/30 09:19:24;;;;;;;20.67;10.20;;;;;;;23.08;57.05;101056.06;5010984;28;20081;-55
2022/06/30 09:22:23;;;;;;;20.15;10.02;;;;;;;23.23;57.06;101061.91;5011002;28;20080;-56
2022/06/30 09:24:58;;;;;;;20.55;10.02;;;;;;;23.25;57.41;101060.31;4988988;28;20056;-56
2022/06/30 09:27:24;;;;;;;17.65;9.65;;;;;;;23.37;56.23;101064.84;5010859;28;20083;-55
2022/06/30 09:29:51;;;;;;;19.98;10.48;;;;;;;23.44;56.92;101061.28;5010793;28;20045;-56
2022/06/30 09:32:17;;;;;;;20.48;10.82;;;;;;;23.41;56.95;101064.88;5011117;28;20026;-57
2022/06/30 09:34:43;;;;;;;19.88;10.05;;;;;;;23.35;56.96;101059.59;5009927;28;20029;-57
2022/06/30 09:37:18;;;;;;;20.75;10.68;;;;;;;23.52;56.57;101062.94;5010910;28;20028;-56
2022/06/30 09:39:45;;;;;;;20.05;9.70;;;;;;;23.64;55.95;101064.66;5010498;28;20497;-56
2022/06/30 09:42:11;;;;;;;18.08;10.18;;;;;;;23.73;55.45;101070.78;5010319;28;20241;-57
2022/06/30 09:44:37;;;;;;;19.98;9.68;;;;;;;23.89;55.07;101064.03;5009065;28;20030;-56
2022/06/30 09:47:03;;;;;;;18.73;10.13;;;;;;;23.99;54.98;101058.50;5010504;28;20394;-57
2022/06/30 09:49:36;;;;;;;19.13;10.23;;;;;;;23.82;55.16;101068.41;5010472;28;20401;-56
2022/06/30 09:52:15;;;;;;;20.35;10.48;;;;;;;23.83;55.45;101063.59;5025563;28;20057;-56
2022/06/30 09:54:52;;;;;;;20.17;10.48;;;;;;;23.88;55.40;101068.88;5010318;28;20366;-56
2022/06/30 09:57:17;;;;;;;20.23;10.50;;;;;;;23.74;54.50;101065.94;5009476;28;20037;-56
2022/06/30 09:59:43;;;;;;;19.88;10.35;;;;;;;23.66;54.72;101077.16;5010421;28;20414;-56
2022/06/30 10:02:09;;;;;;;19.50;10.77;;;;;;;23.60;54.70;101075.91;5009967;28;20037;-56
2022/06/30 10:04:53;;;;;;;19.55;10.50;;;;;;;23.63;55.46;101077.97;5010144;28;20442;-56
2022/06/30 10:07:21;;;;;;;18.17;10.05;;;;;;;23.76;54.63;101077.66;5010115;28;20366;-56
2022/06/30 10:09:48;;;;;;;22.23;10.27;;;;;;;23.90;54.68;101082.63;5010343;28;20113;-57
2022/06/30 10:12:14;;;;;;;19.60;10.50;;;;;;;23.85;54.18;101092.28;5010320;28;20038;-58
2022/06/30 10:14:40;;;;;;;19.20;10.70;;;;;;;23.73;53.72;101093.38;5010021;28;20036;-57
2022/06/30 10:17:08;;;;;;;19.15;10.63;;;;;;;23.56;54.05;101102.50;5009905;28;20036;-57
2022/06/30 10:19:34;;;;;;;20.60;10.88;;;;;;;23.50;55.01;101090.75;5009914;28;20042;-57
2022/06/30 10:22:00;;;;;;;17.63;9.93;;;;;;;23.74;55.85;101085.72;5009648;28;20088;-57
2022/06/30 10:24:25;;;;;;;18.60;9.88;;;;;;;23.89;54.52;101081.00;5009901;28;20022;-56
2022/06/30 10:29:37;;;;;;;18.77;10.40;;;;;;;24.19;52.84;101079.97;5009984;28;20104;-57
2022/06/30 10:32:34;;;;;;;18.77;10.50;;;;;;;24.38;52.24;101081.72;5009606;28;20038;-54
2022/06/30 10:35:20;;;;;;;19.88;10.30;;;;;;;24.65;52.13;101078.59;5009694;28;20220;-56
2022/06/30 10:38:06;;;;;;;21.85;10.70;;;;;;;24.76;51.19;101066.13;5009791;28;20037;-56
2022/06/30 10:40:52;;;;;;;19.65;11.35;;;;;;;24.88;50.72;101070.63;5009634;28;20042;-56
2022/06/30 10:43:19;;;;;;;18.95;9.68;;;;;;;24.77;50.38;101069.78;5009534;28;20496;-56
2022/06/30 10:45:59;;;;;;;20.77;10.85;;;;;;;24.70;50.93;101067.75;5007704;28;20176;-56
2022/06/30 10:48:27;;;;;;;17.70;10.13;;;;;;;24.60;49.49;101074.13;5009279;28;20030;-56
2022/06/30 10:50:53;;;;;;;18.00;10.00;;;;;;;24.27;50.07;101071.16;5007727;28;20038;-56
2022/06/30 10:53:34;;;;;;;17.90;9.40;;;;;;;24.20;51.19;101067.47;5009200;28;20425;-56
2022/06/30 10:55:59;;;;;;;19.60;9.50;;;;;;;24.28;49.66;101066.31;5008427;28;20084;-55
2022/06/30 10:58:24;;;;;;;19.90;10.18;;;;;;;24.40;49.17;101077.28;5009118;28;20461;-56
2022/06/30 11:01:00;;;;;;;16.85;9.43;;;;;;;24.45;49.69;101071.25;5009479;28;20092;-57
2022/06/30 11:03:33;;;;;;;16.70;9.38;;;;;;;24.68;49.84;101061.66;5009143;28;20038;-57
2022/06/30 11:06:01;;;;;;;15.73;8.98;;;;;;;24.73;49.25;101057.63;5009089;28;20112;-57
2022/06/30 11:08:35;;;;;;;18.42;9.40;;;;;;;24.90;49.79;101056.09;5009315;28;20029;-58
2022/06/30 11:11:21;;;;;;;17.02;8.90;;;;;;;25.02;49.00;101063.38;5008951;28;20045;-56
2022/06/30 11:13:51;;;;;;;17.80;9.52;;;;;;;24.95;48.43;101060.53;5007777;28;20087;-56
2022/06/30 11:16:19;;;;;;;18.45;9.05;;;;;;;25.08;48.57;101054.09;5008689;28;20052;-57
2022/06/30 11:18:46;;;;;;;16.67;10.05;;;;;;;25.27;48.50;101056.97;5008906;28;20048;-57
2022/06/30 11:21:11;;;;;;;18.55;10.43;;;;;;;25.40;48.29;101055.38;5023734;28;20165;-56
2022/06/30 11:23:43;;;;;;;18.70;9.82;;;;;;;25.49;48.75;101055.78;5008999;28;20109;-57
2022/06/30 11:28:54;;;;;;;17.50;9.80;;;;;;;25.30;49.00;101059.78;5010144;28;20049;-54
2022/06/30 11:31:25;;;;;;;15.45;8.55;;;;;;;25.30;48.01;101056.97;5008322;28;20025;-56
2022/06/30 11:33:56;;;;;;;15.10;8.50;;;;;;;25.39;48.92;101048.06;5009290;28;20109;-56
2022/06/30 11:36:22;;;;;;;18.42;9.23;;;;;;;25.70;47.72;101048.47;5009207;28;20088;-56